This is the latest recevied weather packets stored in our database for station/object KE5AKC. If no packets are shown the sender has not sent any weather packets the latest 1 day(s).
| Time | Temp. | Humidity | Pressure | Rain* | Wind** | Luminosity | Snow |
|---|---|---|---|---|---|---|---|
| 1778029860 | 26.11° C | 79% | 1007.3 hPa | 0 mm | 1.79 m/s, 213° | 0 W/m² | - |
| 1778029559 | 26.11° C | 79% | 1007.3 hPa | 0 mm | 1.34 m/s, 237° | 1 W/m² | - |
| 1778029255 | 26.11° C | 79% | 1007.3 hPa | 0 mm | 1.34 m/s, 86° | 1 W/m² | - |
| 1778028953 | 26.67° C | 79% | 1007.3 hPa | 0 mm | 1.79 m/s, 128° | 2 W/m² | - |
| 1778028649 | 26.67° C | 79% | 1007.3 hPa | 0 mm | 0.45 m/s, 278° | 4 W/m² | - |
| 1778028346 | 26.67° C | 78% | 1007.3 hPa | 0 mm | 0.89 m/s, 227° | 6 W/m² | - |
| 1778028047 | 26.67° C | 78% | 1007.3 hPa | 0 mm | 2.24 m/s, 152° | 8 W/m² | - |
| 1778027740 | 26.67° C | 78% | 1007.3 hPa | 0 mm | 0.89 m/s, 195° | 10 W/m² | - |
| 1778027436 | 26.67° C | 78% | 1006.9 hPa | 0 mm | 1.34 m/s, 161° | 9 W/m² | - |
| 1778027132 | 26.67° C | 77% | 1006.9 hPa | 0 mm | 2.68 m/s, 135° | 17 W/m² | - |
| 1778026828 | 26.67° C | 77% | 1006.9 hPa | 0 mm | 2.68 m/s, 189° | 26 W/m² | - |
| 1778026524 | 27.22° C | 77% | 1006.9 hPa | 0 mm | 3.13 m/s, 146° | 25 W/m² | - |
| 1778026222 | 27.22° C | 77% | 1006.9 hPa | 0 mm | 0.89 m/s, 219° | 24 W/m² | - |
| 1778025919 | 27.22° C | 77% | 1006.9 hPa | 0 mm | 0.89 m/s, 145° | 37 W/m² | - |
| 1778025616 | 27.22° C | 77% | 1006.6 hPa | 0 mm | 1.34 m/s, 223° | 44 W/m² | - |
| 1778025314 | 27.22° C | 77% | 1006.9 hPa | 0 mm | 0.45 m/s, 167° | 53 W/m² | - |
| 1778025011 | 27.22° C | 77% | 1006.6 hPa | 0 mm | 1.34 m/s, 198° | 63 W/m² | - |
| 1778024708 | 27.22° C | 77% | 1006.6 hPa | 0 mm | 1.79 m/s, 163° | 93 W/m² | - |
| 1778024404 | 27.22° C | 77% | 1006.9 hPa | 0 mm | 0.89 m/s, 236° | 90 W/m² | - |
| 1778024102 | 27.22° C | 77% | 1007.3 hPa | 0 mm | 1.34 m/s, 176° | 89 W/m² | - |
| 1778023799 | 27.22° C | 77% | 1006.9 hPa | 0 mm | 0.89 m/s, 179° | 51 W/m² | - |
| 1778023497 | 27.22° C | 77% | 1006.6 hPa | 0 mm | 1.79 m/s, 115° | 33 W/m² | - |
| 1778023194 | 27.78° C | 76% | 1007.3 hPa | 0 mm | 1.79 m/s, 151° | 87 W/m² | - |
| 1778022891 | 27.22° C | 77% | 1007.3 hPa | 0 mm | 1.79 m/s, 146° | 91 W/m² | - |
| 1778022590 | 27.22° C | 77% | 1007.3 hPa | 0 mm | 1.79 m/s, 102° | 120 W/m² | - |
* Rain latest hour (hover to see other rain measurements)
** Current wind speed in m/s (hover to see current wind gust speed)